Waterloo, Ohio
Current Conditions -  °F | °C
As of 4:15 PM on Saturday 22 Nov 2014 (Local Time) from KDWU Reporting Station
Broken Clouds Broken Clouds  
Wind Chill: 15°   Ceiling: 11000
Heat Index: 15°   Visibility: 10mi
Dew Point: -2°   Wind: 5mph
Humidity: 31%   Direction: 260°W
Pressure: 30.17"   Gusts: NA
Location:  38.7°N, 82.47°W
Report Text: KDWU 222115Z AUTO 26004KT 10SM BKN110 15/M02 A3017 RMK AO1
Loading
Personal Weather Stations






























Interactive Weather Map New forecast layout! Learn more

10-Day Weather Forecast

Advertisements
Track Severe Weather on mobile